Time;durP1;ratioP1;P1;durP2;ratioP2;P2;SDS_P1;SDS_P2;PMS_P1;PMS_P2;Temp;Humidity;BMP_temperature;BMP_pressure;BME280_temperature;BME280_humidity;BME280_pressure;Samples;Min_cycle;Max_cycle;Signal;HPM_P1;HPM_P2
2022/09/03 00:02:17;;;;;;;2.22;1.10;;;14.70;94.50;;;;;;4966692;28;20390;-73
2022/09/03 00:04:56;;;;;;;0.57;0.57;;;14.80;94.90;;;;;;4967260;28;20039;-73
2022/09/03 00:08:05;;;;;;;0.65;0.65;;;14.80;94.60;;;;;;4968071;28;20054;-73
2022/09/03 00:10:51;;;;;;;0.38;0.38;;;14.80;94.50;;;;;;5066862;28;20739;-75
2022/09/03 00:13:27;;;;;;;1.27;1.17;;;14.80;94.40;;;;;;5050110;28;20032;-73
2022/09/03 00:15:56;;;;;;;0.68;0.57;;;14.70;94.60;;;;;;4996228;28;20042;-73
2022/09/03 00:18:26;;;;;;;4.43;2.25;;;14.70;94.90;;;;;;4983223;28;20034;-73
2022/09/03 00:20:58;;;;;;;2.08;1.17;;;14.70;94.90;;;;;;4985831;28;20410;-74
2022/09/03 00:23:29;;;;;;;0.60;0.60;;;14.70;95.10;;;;;;4987440;28;20113;-72
2022/09/03 00:26:21;;;;;;;0.98;0.98;;;14.70;95.30;;;;;;4987348;28;20092;-72
2022/09/03 00:28:55;;;;;;;0.70;0.70;;;14.70;95.40;;;;;;5012010;28;20047;-74
2022/09/03 00:31:36;;;;;;;0.50;0.50;;;14.70;95.50;;;;;;4966385;28;20478;-74
2022/09/03 00:34:14;;;;;;;0.88;0.88;;;14.70;95.80;;;;;;4977494;28;20081;-72
2022/09/03 00:36:43;;;;;;;2.03;1.85;;;14.70;96.10;;;;;;4987277;28;20054;-72
2022/09/03 00:39:20;;;;;;;0.75;0.75;;;14.70;96.10;;;;;;4985989;28;20031;-74
2022/09/03 00:42:20;;;;;;;0.50;0.50;;;14.70;96.20;;;;;;4984783;28;20069;-74
2022/09/03 00:45:18;;;;;;;0.90;0.90;;;14.60;96.00;;;;;;4967720;28;20397;-73
2022/09/03 00:48:25;;;;;;;0.98;0.90;;;14.50;95.90;;;;;;4980584;28;20504;-74
2022/09/03 00:51:06;;;;;;;0.60;0.60;;;14.50;96.10;;;;;;4982005;28;20083;-75
2022/09/03 00:53:37;;;;;;;0.40;0.40;;;14.50;96.00;;;;;;4985914;28;20041;-73
2022/09/03 00:56:07;;;;;;;1.95;1.67;;;14.50;96.10;;;;;;4986813;28;20080;-73
2022/09/03 00:59:02;;;;;;;0.55;0.55;;;14.50;96.10;;;;;;4972557;28;20027;-74
2022/09/03 01:01:34;;;;;;;0.73;0.63;;;14.50;95.80;;;;;;4969003;28;20035;-73
2022/09/03 01:04:20;;;;;;;0.50;0.50;;;14.50;96.00;;;;;;4980981;28;20046;-74
2022/09/03 01:07:00;;;;;;;0.30;0.30;;;14.50;96.30;;;;;;4985286;28;20030;-73
2022/09/03 01:09:47;;;;;;;0.93;0.93;;;14.40;96.10;;;;;;4975679;28;20035;-72
2022/09/03 01:12:18;;;;;;;0.52;0.52;;;14.50;96.60;;;;;;4965860;28;20375;-72
2022/09/03 01:14:46;;;;;;;1.15;1.15;;;14.40;96.20;;;;;;4967989;28;20450;-73
2022/09/03 01:17:45;;;;;;;2.15;1.95;;;14.40;96.10;;;;;;4970353;28;20058;-72
2022/09/03 01:20:10;;;;;;;0.95;0.95;;;14.30;96.10;;;;;;4968952;28;20138;-73
2022/09/03 01:22:58;;;;;;;0.93;0.93;;;14.30;96.20;;;;;;4970280;28;20041;-72
2022/09/03 01:25:41;;;;;;;0.70;0.70;;;14.30;96.00;;;;;;4970408;28;20041;-73
2022/09/03 01:28:13;;;;;;;1.25;1.20;;;14.30;96.20;;;;;;4986171;28;20288;-73
2022/09/03 01:30:47;;;;;;;0.68;0.68;;;14.30;96.40;;;;;;4984249;28;20031;-73
2022/09/03 01:33:36;;;;;;;2.17;0.98;;;14.30;96.50;;;;;;4985590;28;20026;-72
2022/09/03 01:36:10;;;;;;;0.68;0.68;;;14.20;96.50;;;;;;4989382;28;20757;-73
2022/09/03 01:38:41;;;;;;;0.88;0.88;;;14.30;96.70;;;;;;4989757;28;20035;-73
2022/09/03 01:44:17;;;;;;;0.52;0.52;;;14.20;96.70;;;;;;4970461;28;20074;-75
2022/09/03 01:46:47;;;;;;;0.80;0.80;;;14.20;96.60;;;;;;4970578;28;20436;-73
2022/09/03 01:49:29;;;;;;;0.77;0.77;;;14.30;96.50;;;;;;4981817;28;20092;-73
2022/09/03 01:52:14;;;;;;;0.40;0.40;;;14.30;96.50;;;;;;4989715;28;20115;-73
2022/09/03 01:54:59;;;;;;;0.40;0.40;;;14.30;96.60;;;;;;4989531;28;20037;-72
2022/09/03 01:57:33;;;;;;;0.68;0.68;;;14.30;96.70;;;;;;4995906;28;20026;-72
2022/09/03 02:00:19;;;;;;;0.43;0.43;;;14.40;96.70;;;;;;5007736;28;20037;-73
2022/09/03 02:02:46;;;;;;;0.45;0.45;;;14.40;96.90;;;;;;5009069;28;20118;-73
2022/09/03 02:05:26;;;;;;;0.60;0.60;;;14.40;96.80;;;;;;4991213;28;20476;-73
2022/09/03 02:08:06;;;;;;;0.60;0.60;;;14.40;97.00;;;;;;4989395;28;20034;-73
2022/09/03 02:10:45;;;;;;;0.50;0.50;;;14.30;96.90;;;;;;4989172;28;20415;-72
2022/09/03 02:13:30;;;;;;;0.80;0.75;;;14.30;96.90;;;;;;5000202;28;20029;-73
2022/09/03 02:16:01;;;;;;;0.40;0.40;;;14.30;97.20;;;;;;5008706;28;20362;-73
2022/09/03 02:18:36;;;;;;;0.70;0.70;;;14.30;97.50;;;;;;5007167;28;20030;-72
2022/09/03 02:21:02;;;;;;;0.40;0.40;;;14.20;97.50;;;;;;4988559;28;20031;-73
2022/09/03 02:23:28;;;;;;;0.80;0.77;;;14.20;97.60;;;;;;4988727;28;20057;-73
2022/09/03 02:26:00;;;;;;;0.75;0.75;;;14.50;97.80;;;;;;4987161;28;20129;-73
2022/09/03 02:28:27;;;;;;;0.43;0.43;;;14.20;97.50;;;;;;4994561;28;20023;-72
2022/09/03 02:30:53;;;;;;;1.17;0.60;;;14.20;97.30;;;;;;4989146;28;20455;-72
2022/09/03 02:33:19;;;;;;;1.40;1.30;;;14.20;97.50;;;;;;4988843;28;20087;-73
2022/09/03 02:35:45;;;;;;;0.80;0.80;;;14.10;97.50;;;;;;5006220;28;20033;-72
2022/09/03 02:38:18;;;;;;;0.45;0.45;;;14.20;97.60;;;;;;5008274;28;20106;-72
2022/09/03 02:40:44;;;;;;;0.60;0.60;;;14.20;97.90;;;;;;5006303;28;20041;-73
2022/09/03 02:43:19;;;;;;;0.50;0.50;;;14.20;98.30;;;;;;5008146;28;20081;-73
2022/09/03 02:45:47;;;;;;;0.82;0.82;;;14.20;98.00;;;;;;5008062;28;20038;-73
2022/09/03 02:48:18;;;;;;;0.40;0.40;;;14.10;98.20;;;;;;4997883;28;20026;-73
2022/09/03 02:50:43;;;;;;;0.50;0.50;;;14.10;98.40;;;;;;5002381;28;20077;-72
2022/09/03 02:53:09;;;;;;;0.70;0.70;;;14.20;98.60;;;;;;5007995;28;20034;-72
2022/09/03 02:55:36;;;;;;;0.88;0.88;;;14.20;98.80;;;;;;5007030;28;20062;-72
2022/09/03 02:58:02;;;;;;;1.20;0.70;;;14.20;99.00;;;;;;5007491;28;20126;-73
2022/09/03 03:00:27;;;;;;;0.30;0.30;;;14.20;99.30;;;;;;5006585;28;20558;-73
2022/09/03 03:02:56;;;;;;;0.60;0.60;;;14.30;99.80;;;;;;5008176;28;20195;-74
2022/09/03 03:05:29;;;;;;;0.77;0.77;;;14.30;99.90;;;;;;4996699;28;20054;-73
2022/09/03 03:07:57;;;;;;;1.30;1.25;;;14.30;99.90;;;;;;4988698;28;20466;-73
2022/09/03 03:10:22;;;;;;;0.38;0.38;;;14.20;99.90;;;;;;4988321;28;20117;-73
2022/09/03 03:12:48;;;;;;;0.40;0.40;;;14.30;99.90;;;;;;4988555;28;20224;-73
2022/09/03 03:15:14;;;;;;;0.73;0.73;;;14.30;99.90;;;;;;5007730;28;20567;-72
2022/09/03 03:17:40;;;;;;;0.77;0.77;;;14.20;99.90;;;;;;5007799;28;20091;-73
2022/09/03 03:20:06;;;;;;;0.40;0.40;;;14.30;99.90;;;;;;5001824;28;20268;-73
2022/09/03 03:22:31;;;;;;;0.95;0.95;;;14.20;99.90;;;;;;5007683;28;20069;-74
2022/09/03 03:24:57;;;;;;;0.30;0.30;;;14.20;99.90;;;;;;5007693;28;20457;-73
2022/09/03 03:27:22;;;;;;;2.80;1.23;;;14.20;99.90;;;;;;5007974;28;20022;-72
2022/09/03 03:29:49;;;;;;;1.33;1.23;;;14.20;99.90;;;;;;4991213;28;20163;-72
2022/09/03 03:32:15;;;;;;;1.17;1.13;;;14.10;99.90;;;;;;4986413;28;20390;-73
2022/09/03 03:34:40;;;;;;;1.60;1.50;;;14.00;99.90;;;;;;4988075;28;20038;-73
2022/09/03 03:37:06;;;;;;;0.50;0.50;;;14.00;99.90;;;;;;5005622;28;20484;-72
2022/09/03 03:39:31;;;;;;;0.47;0.47;;;14.00;99.90;;;;;;5006402;28;20454;-72
2022/09/03 03:41:57;;;;;;;0.60;0.60;;;14.00;99.90;;;;;;5005941;28;20038;-72
2022/09/03 03:44:23;;;;;;;1.70;1.60;;;14.00;99.90;;;;;;4996625;28;20082;-75
2022/09/03 03:46:48;;;;;;;0.50;0.50;;;14.10;99.90;;;;;;4987916;28;20405;-74
2022/09/03 03:49:14;;;;;;;1.23;1.23;;;14.00;99.90;;;;;;4988118;28;20383;-71
2022/09/03 03:51:39;;;;;;;0.73;0.73;;;14.10;99.90;;;;;;5001612;28;20082;-72
2022/09/03 03:54:05;;;;;;;0.80;0.80;;;14.00;99.90;;;;;;5005950;28;20022;-72
2022/09/03 03:56:32;;;;;;;0.80;0.80;;;14.00;99.90;;;;;;5006930;28;20542;-73
2022/09/03 03:58:58;;;;;;;0.40;0.40;;;14.00;99.90;;;;;;5003220;28;20050;-73
2022/09/03 04:01:25;;;;;;;4.53;1.20;;;14.10;99.90;;;;;;4987409;28;20077;-73
2022/09/03 04:03:54;;;;;;;2.00;1.75;;;14.10;99.90;;;;;;4987667;28;20030;-73
2022/09/03 04:06:20;;;;;;;0.63;0.63;;;14.20;99.90;;;;;;4997870;28;20030;-71
2022/09/03 04:08:47;;;;;;;1.57;1.47;;;14.50;99.90;;;;;;5006899;28;20492;-74
2022/09/03 04:11:15;;;;;;;0.47;0.47;;;14.20;99.90;;;;;;5005392;28;20030;-73
2022/09/03 04:13:42;;;;;;;0.38;0.38;;;14.20;99.90;;;;;;4997787;28;20031;-72
2022/09/03 04:16:13;;;;;;;0.43;0.43;;;14.30;99.90;;;;;;4986821;28;20030;-72
2022/09/03 04:18:40;;;;;;;0.82;0.82;;;14.30;99.90;;;;;;4987596;28;20035;-73
2022/09/03 04:21:17;;;;;;;0.50;0.50;;;14.30;99.90;;;;;;4993910;28;20046;-73
2022/09/03 04:23:44;;;;;;;;;;;14.30;99.90;;;;;;5007385;28;20034;-72
2022/09/03 04:26:13;;;;;;;0.55;0.55;;;14.30;99.90;;;;;;5005417;28;20001;-72
2022/09/03 04:28:40;;;;;;;0.65;0.65;;;14.30;99.90;;;;;;5006778;28;20057;-72
2022/09/03 04:31:08;;;;;;;0.95;0.93;;;14.30;99.90;;;;;;4987644;28;20125;-71
2022/09/03 04:33:36;;;;;;;0.90;0.88;;;14.30;99.90;;;;;;4985779;28;20062;-74
2022/09/03 04:36:14;;;;;;;0.88;0.88;;;14.40;99.90;;;;;;4989872;28;20524;-73
2022/09/03 04:38:41;;;;;;;0.40;0.40;;;14.40;99.90;;;;;;5006829;28;20101;-73
2022/09/03 04:41:11;;;;;;;0.30;0.30;;;14.50;99.90;;;;;;5006456;28;20462;-73
2022/09/03 04:43:37;;;;;;;1.05;0.82;;;14.50;99.90;;;;;;5006784;28;20099;-73
2022/09/03 04:46:05;;;;;;;0.75;0.75;;;14.50;99.90;;;;;;4991487;28;20109;-73
2022/09/03 04:48:32;;;;;;;1.17;1.17;;;14.50;99.90;;;;;;4987002;28;20034;-72
2022/09/03 04:51:04;;;;;;;0.50;0.50;;;14.60;99.90;;;;;;4988867;28;20127;-73
2022/09/03 04:53:32;;;;;;;0.30;0.30;;;14.60;99.90;;;;;;4991266;28;20474;-73
2022/09/03 04:55:57;;;;;;;0.40;0.40;;;14.50;99.90;;;;;;5005215;28;20080;-73
2022/09/03 04:58:23;;;;;;;0.50;0.50;;;14.60;99.90;;;;;;5009883;28;20397;-74
2022/09/03 05:00:49;;;;;;;1.87;1.17;;;14.60;99.90;;;;;;5007986;28;20076;-73
2022/09/03 05:03:14;;;;;;;0.50;0.50;;;14.60;99.90;;;;;;5009615;28;20189;-73
2022/09/03 05:05:41;;;;;;;0.40;0.40;;;14.60;99.80;;;;;;5004053;28;20057;-74
2022/09/03 05:08:06;;;;;;;0.35;0.35;;;14.50;99.90;;;;;;5009703;28;20112;-73
2022/09/03 05:10:32;;;;;;;1.33;0.80;;;14.50;99.90;;;;;;5009585;28;20105;-73
2022/09/03 05:13:04;;;;;;;0.67;0.67;;;14.60;99.90;;;;;;5009757;28;20057;-75
2022/09/03 05:15:31;;;;;;;0.43;0.43;;;14.50;99.90;;;;;;5007521;28;20038;-73
2022/09/03 05:18:01;;;;;;;1.38;1.27;;;14.60;99.90;;;;;;5009611;28;20033;-73
2022/09/03 05:20:28;;;;;;;0.38;0.38;;;14.60;99.90;;;;;;5003871;28;20029;-72
2022/09/03 05:22:55;;;;;;;0.63;0.63;;;14.60;99.90;;;;;;4992326;28;20038;-73
2022/09/03 05:25:22;;;;;;;1.02;0.98;;;14.70;99.90;;;;;;4989872;28;20030;-73
2022/09/03 05:27:48;;;;;;;0.65;0.65;;;14.60;99.90;;;;;;4989798;28;20034;-73
2022/09/03 05:30:14;;;;;;;0.63;0.63;;;14.60;99.90;;;;;;4989852;28;20046;-73
2022/09/03 05:32:40;;;;;;;0.30;0.30;;;14.60;99.90;;;;;;4988176;28;20026;-73
2022/09/03 05:35:07;;;;;;;0.65;0.65;;;14.60;99.90;;;;;;4989638;28;20033;-72
2022/09/03 05:37:33;;;;;;;0.40;0.40;;;14.50;99.90;;;;;;4997276;28;20030;-72
2022/09/03 05:39:59;;;;;;;0.80;0.67;;;14.40;99.90;;;;;;5009141;28;20086;-74
2022/09/03 05:42:26;;;;;;;0.73;0.73;;;14.40;99.90;;;;;;5008889;28;20049;-73
2022/09/03 05:44:52;;;;;;;1.08;1.05;;;14.40;99.90;;;;;;5001253;28;20038;-72
2022/09/03 05:47:17;;;;;;;0.77;0.77;;;14.40;99.90;;;;;;4989391;28;20413;-73
2022/09/03 05:49:43;;;;;;;0.77;0.77;;;14.40;99.90;;;;;;4989249;28;20506;-73
2022/09/03 05:52:08;;;;;;;1.57;1.47;;;14.50;99.90;;;;;;5002848;28;20030;-73
2022/09/03 05:54:34;;;;;;;0.50;0.50;;;14.50;99.90;;;;;;5007808;28;20332;-73
2022/09/03 05:57:00;;;;;;;0.57;0.57;;;14.60;99.90;;;;;;5007388;28;20554;-74
2022/09/03 05:59:26;;;;;;;0.40;0.40;;;14.60;99.90;;;;;;5006270;28;20112;-72
2022/09/03 06:01:52;;;;;;;0.93;0.93;;;14.70;99.90;;;;;;4988071;28;20038;-73
2022/09/03 06:04:18;;;;;;;0.40;0.40;;;14.70;99.90;;;;;;4989423;28;20030;-73
2022/09/03 06:06:45;;;;;;;1.63;1.13;;;14.80;99.90;;;;;;4987872;28;20129;-73
2022/09/03 06:09:17;;;;;;;0.45;0.45;;;14.80;99.90;;;;;;4989219;28;20465;-73
2022/09/03 06:11:44;;;;;;;1.02;1.00;;;14.90;99.90;;;;;;4989032;28;20041;-74
2022/09/03 06:14:11;;;;;;;0.40;0.40;;;15.00;99.90;;;;;;4989319;28;20025;-74
2022/09/03 06:16:47;;;;;;;0.40;0.40;;;15.10;99.90;;;;;;5004801;28;20129;-73
2022/09/03 06:19:13;;;;;;;6.55;1.67;;;15.20;99.90;;;;;;5007209;28;20564;-73
2022/09/03 06:21:41;;;;;;;0.87;0.87;;;15.20;99.90;;;;;;5000659;28;20084;-74
2022/09/03 06:24:16;;;;;;;0.30;0.30;;;15.20;99.90;;;;;;4987616;28;20034;-73
2022/09/03 06:26:42;;;;;;;1.58;1.27;;;15.30;99.90;;;;;;4988857;28;20031;-73
2022/09/03 06:29:08;;;;;;;0.50;0.50;;;15.40;99.90;;;;;;4988431;28;20026;-73
2022/09/03 06:31:34;;;;;;;0.43;0.43;;;15.40;99.90;;;;;;4988644;28;20136;-73
2022/09/03 06:34:00;;;;;;;1.67;1.27;;;15.50;99.90;;;;;;4987617;28;20022;-73
2022/09/03 06:36:26;;;;;;;0.73;0.70;;;15.60;99.90;;;;;;4987303;28;20033;-73
2022/09/03 06:38:54;;;;;;;0.65;0.65;;;15.60;99.90;;;;;;4988887;28;20088;-73
2022/09/03 06:41:30;;;;;;;0.63;0.63;;;15.60;99.90;;;;;;5000193;28;20136;-74
2022/09/03 06:44:02;;;;;;;0.50;0.50;;;15.60;99.90;;;;;;4989850;28;20446;-73
2022/09/03 06:46:33;;;;;;;0.63;0.63;;;15.70;99.90;;;;;;4987269;28;20485;-73
2022/09/03 06:48:59;;;;;;;1.05;1.02;;;15.70;99.90;;;;;;4988372;28;20036;-73
2022/09/03 06:51:27;;;;;;;0.40;0.40;;;15.90;99.90;;;;;;4988109;28;20129;-73
2022/09/03 06:53:58;;;;;;;0.50;0.47;;;15.90;99.90;;;;;;5002688;28;20033;-73
2022/09/03 06:56:27;;;;;;;0.40;0.40;;;16.00;99.90;;;;;;5006237;28;20041;-72
2022/09/03 06:58:57;;;;;;;0.40;0.40;;;16.10;99.90;;;;;;5006171;28;20535;-73
2022/09/03 07:01:26;;;;;;;1.77;1.20;;;16.20;99.90;;;;;;4996193;28;20035;-73
2022/09/03 07:03:55;;;;;;;0.70;0.70;;;16.20;99.90;;;;;;4988461;28;20385;-74
2022/09/03 07:06:21;;;;;;;0.60;0.60;;;16.30;99.90;;;;;;4987698;28;20034;-74
2022/09/03 07:08:47;;;;;;;0.43;0.43;;;16.30;99.70;;;;;;5003433;28;20038;-73
2022/09/03 07:11:18;;;;;;;32.60;1.33;;;16.50;99.80;;;;;;5006064;28;20079;-72
2022/09/03 07:13:46;;;;;;;0.60;0.60;;;16.60;99.60;;;;;;5007500;28;20400;-74
2022/09/03 07:16:14;;;;;;;0.70;0.70;;;16.70;99.90;;;;;;5005943;28;20401;-74
2022/09/03 07:18:42;;;;;;;0.55;0.55;;;16.50;99.90;;;;;;5005824;28;20037;-74
2022/09/03 07:21:11;;;;;;;0.80;0.80;;;16.60;99.90;;;;;;5006613;28;20049;-73
2022/09/03 07:23:38;;;;;;;0.40;0.40;;;16.70;99.90;;;;;;4993459;28;20035;-74
2022/09/03 07:26:05;;;;;;;;;;;16.60;99.90;;;;;;4986671;28;20077;-74
2022/09/03 07:28:33;;;;;;;2.53;2.33;;;16.60;99.90;;;;;;5005767;28;20314;-73
2022/09/03 07:31:10;;;;;;;1.38;1.27;;;16.50;99.90;;;;;;5005645;28;20046;-73
2022/09/03 07:33:37;;;;;;;0.70;0.70;;;16.40;99.90;;;;;;5005837;28;20117;-72
2022/09/03 07:36:08;;;;;;;3.15;2.25;;;16.30;99.90;;;;;;5005802;28;20434;-74
2022/09/03 07:38:35;;;;;;;0.43;0.43;;;16.40;99.90;;;;;;4994122;28;20390;-73
2022/09/03 07:41:03;;;;;;;2.35;2.15;;;16.50;99.90;;;;;;4985917;28;20075;-72
2022/09/03 07:43:38;;;;;;;0.50;0.50;;;16.60;99.90;;;;;;4986246;28;20058;-73
2022/09/03 07:46:05;;;;;;;0.50;0.50;;;16.70;99.90;;;;;;4988680;28;20482;-73
2022/09/03 07:48:31;;;;;;;0.90;0.73;;;16.80;99.80;;;;;;5006783;28;20037;-73
2022/09/03 07:51:00;;;;;;;0.60;0.60;;;16.90;99.90;;;;;;5005485;28;20038;-72
2022/09/03 07:53:27;;;;;;;1.00;1.00;;;17.00;99.90;;;;;;5002785;28;20462;-73
2022/09/03 07:55:53;;;;;;;0.50;0.50;;;17.10;99.60;;;;;;5007264;28;20371;-73
2022/09/03 07:58:21;;;;;;;0.40;0.40;;;17.30;99.40;;;;;;4991955;28;20106;-74
2022/09/03 08:00:48;;;;;;;0.75;0.75;;;17.40;99.10;;;;;;4994390;28;20077;-74
2022/09/03 08:03:13;;;;;;;0.50;0.50;;;17.40;99.10;;;;;;5006718;28;20377;-74
2022/09/03 08:05:39;;;;;;;0.97;0.97;;;17.60;99.00;;;;;;5006700;28;20044;-74
2022/09/03 08:08:05;;;;;;;1.27;1.20;;;17.70;98.70;;;;;;5002510;28;20513;-73
2022/09/03 08:10:35;;;;;;;1.00;1.00;;;17.70;98.80;;;;;;4985759;28;20180;-74
2022/09/03 08:13:04;;;;;;;2.35;1.42;;;17.70;99.00;;;;;;4987145;28;20042;-75
2022/09/03 08:15:30;;;;;;;1.38;1.27;;;17.80;99.10;;;;;;4987116;28;20676;-74
2022/09/03 08:17:56;;;;;;;0.60;0.60;;;17.70;98.90;;;;;;4999232;28;20188;-72
2022/09/03 08:20:21;;;;;;;1.13;1.10;;;17.70;98.70;;;;;;5006755;28;20120;-74
2022/09/03 08:22:47;;;;;;;0.70;0.70;;;17.60;98.60;;;;;;5006463;28;20034;-74
2022/09/03 08:25:13;;;;;;;1.00;0.97;;;17.60;98.90;;;;;;5006233;28;20038;-73
2022/09/03 08:27:39;;;;;;;0.40;0.40;;;17.60;98.60;;;;;;5009931;28;20314;-74
2022/09/03 08:30:10;;;;;;;0.80;0.80;;;17.60;98.50;;;;;;5008235;28;20034;-75
2022/09/03 08:32:37;;;;;;;0.57;0.57;;;17.60;98.60;;;;;;5001726;28;20339;-72
2022/09/03 08:35:04;;;;;;;0.70;0.70;;;17.60;98.40;;;;;;4988833;28;20041;-73
2022/09/03 08:37:31;;;;;;;0.73;0.73;;;17.70;98.40;;;;;;4990011;28;20436;-72
2022/09/03 08:39:57;;;;;;;;;;;17.70;98.00;;;;;;4991451;28;20034;-73
2022/09/03 08:42:22;;;;;;;2.13;1.08;;;17.70;98.00;;;;;;4988594;28;19971;-73
2022/09/03 08:44:59;;;;;;;1.30;1.13;;;17.70;98.00;;;;;;4989868;28;20051;-73
2022/09/03 08:47:49;;;;;;;0.55;0.55;;;17.80;97.40;;;;;;4994064;28;20034;-72
2022/09/03 08:50:41;;;;;;;1.05;1.05;;;17.80;97.30;;;;;;5008001;28;20048;-74
2022/09/03 08:53:11;;;;;;;0.30;0.30;;;17.80;97.20;;;;;;5008162;28;20037;-72
2022/09/03 08:55:58;;;;;;;3.40;2.05;;;17.80;97.40;;;;;;5005500;28;20038;-74
2022/09/03 08:58:31;;;;;;;0.68;0.68;;;18.00;97.60;;;;;;4970652;28;20043;-74
2022/09/03 09:01:08;;;;;;;0.50;0.50;;;18.20;97.10;;;;;;4970464;28;20562;-74
2022/09/03 09:04:01;;;;;;;0.88;0.88;;;18.30;96.80;;;;;;4968867;28;20060;-73
2022/09/03 09:06:50;;;;;;;1.00;1.00;;;18.40;96.50;;;;;;4968370;28;20035;-73
2022/09/03 09:09:35;;;;;;;0.60;0.60;;;18.50;96.20;;;;;;4975221;28;20302;-74
2022/09/03 09:12:09;;;;;;;0.38;0.38;;;18.50;95.20;;;;;;4989829;28;20486;-73
2022/09/03 09:15:16;;;;;;;1.83;1.73;;;18.50;94.80;;;;;;4988371;28;20042;-73
2022/09/03 09:18:00;;;;;;;0.43;0.43;;;18.40;94.40;;;;;;4996573;28;20066;-74
2022/09/03 09:20:41;;;;;;;0.30;0.30;;;18.50;94.40;;;;;;5009243;28;20272;-74
2022/09/03 09:23:21;;;;;;;0.32;0.32;;;18.50;94.20;;;;;;5009373;28;20461;-74
2022/09/03 09:25:48;;;;;;;1.02;1.02;;;18.50;94.90;;;;;;4991652;28;20405;-74
2022/09/03 09:28:36;;;;;;;0.45;0.45;;;18.50;95.10;;;;;;4988130;28;20429;-74
2022/09/03 09:31:04;;;;;;;1.02;1.02;;;18.60;95.20;;;;;;4988080;28;20027;-73
2022/09/03 09:33:31;;;;;;;0.30;0.30;;;18.60;94.50;;;;;;4995252;28;20034;-73
2022/09/03 09:36:05;;;;;;;0.75;0.75;;;18.50;94.50;;;;;;5008688;28;20044;-73
2022/09/03 09:38:35;;;;;;;0.82;0.82;;;18.50;94.10;;;;;;5009030;28;20045;-73
2022/09/03 09:41:12;;;;;;;0.50;0.50;;;18.40;94.70;;;;;;5005688;28;20038;-73
2022/09/03 09:43:39;;;;;;;1.50;1.40;;;18.30;94.60;;;;;;5007398;28;20473;-74
2022/09/03 09:46:13;;;;;;;0.45;0.45;;;18.30;94.90;;;;;;4992570;28;20060;-73
2022/09/03 09:48:51;;;;;;;0.50;0.50;;;18.30;94.70;;;;;;4987682;28;20463;-73
2022/09/03 09:51:27;;;;;;;0.70;0.70;;;18.40;95.30;;;;;;4989240;28;20181;-74
2022/09/03 09:54:18;;;;;;;0.40;0.40;;;18.50;94.90;;;;;;4988171;28;20311;-73
2022/09/03 09:56:45;;;;;;;0.73;0.73;;;18.20;93.50;;;;;;5006341;28;20033;-73
2022/09/03 09:59:13;;;;;;;0.38;0.38;;;18.10;94.00;;;;;;5008723;28;20508;-73
2022/09/03 10:01:41;;;;;;;0.60;0.60;;;18.20;94.50;;;;;;5005463;28;20363;-73
2022/09/03 10:04:20;;;;;;;0.38;0.38;;;18.20;94.30;;;;;;5008962;28;20041;-73
2022/09/03 10:06:55;;;;;;;0.40;0.40;;;18.30;93.50;;;;;;5007288;28;20116;-73
2022/09/03 10:09:24;;;;;;;0.60;0.60;;;18.30;93.50;;;;;;5008798;28;20370;-74
2022/09/03 10:12:18;;;;;;;0.60;0.60;;;18.20;93.60;;;;;;4987567;28;20041;-74
2022/09/03 10:14:46;;;;;;;0.77;0.77;;;18.00;93.40;;;;;;4988699;28;20027;-73
2022/09/03 10:17:31;;;;;;;0.40;0.40;;;18.00;93.10;;;;;;4988849;28;20113;-73
2022/09/03 10:23:01;;;;;;;0.50;0.50;;;18.10;93.80;;;;;;5007811;28;20061;-74
2022/09/03 10:25:38;;;;;;;0.50;0.50;;;18.20;93.20;;;;;;5006364;28;20541;-74
2022/09/03 10:28:07;;;;;;;0.43;0.43;;;18.10;92.80;;;;;;5006796;28;20029;-73
2022/09/03 10:30:45;;;;;;;0.40;0.40;;;18.10;92.60;;;;;;5007794;28;20038;-72
2022/09/03 10:33:21;;;;;;;0.57;0.50;;;18.10;92.70;;;;;;5006856;28;20522;-75
2022/09/03 10:35:56;;;;;;;0.40;0.40;;;18.10;92.70;;;;;;4987726;28;20041;-76
2022/09/03 10:38:32;;;;;;;0.40;0.40;;;18.20;93.20;;;;;;4987168;28;20030;-73
2022/09/03 10:41:15;;;;;;;0.77;0.68;;;18.20;92.90;;;;;;4990724;28;20458;-74
2022/09/03 10:43:44;;;;;;;0.68;0.68;;;18.10;92.60;;;;;;5006557;28;20046;-74
2022/09/03 10:46:15;;;;;;;1.10;0.63;;;18.00;92.30;;;;;;5006461;28;20041;-75
2022/09/03 10:48:53;;;;;;;0.30;0.30;;;18.00;92.80;;;;;;4990330;28;20041;-74
2022/09/03 10:51:26;;;;;;;0.30;0.30;;;18.10;93.20;;;;;;4988501;28;20130;-74
2022/09/03 10:53:58;;;;;;;0.43;0.43;;;18.10;92.60;;;;;;4986985;28;20031;-73
2022/09/03 10:56:49;;;;;;;0.30;0.30;;;18.10;92.90;;;;;;4989265;28;20030;-74
2022/09/03 10:59:34;;;;;;;0.30;0.30;;;18.10;92.80;;;;;;4988176;28;20389;-74
2022/09/03 11:02:22;;;;;;;0.30;0.30;;;18.20;92.50;;;;;;4987970;28;20038;-74
2022/09/03 11:05:06;;;;;;;0.50;0.50;;;18.10;93.00;;;;;;4994095;28;20042;-73
2022/09/03 11:07:49;;;;;;;0.40;0.40;;;18.20;93.00;;;;;;5007213;28;20402;-74
2022/09/03 11:10:25;;;;;;;0.70;0.70;;;18.30;93.10;;;;;;5007349;28;20034;-74
2022/09/03 11:13:30;;;;;;;0.75;0.70;;;18.40;92.90;;;;;;5007012;28;20512;-74
2022/09/03 11:16:03;;;;;;;0.40;0.40;;;18.40;93.20;;;;;;5007492;28;20392;-73
2022/09/03 11:18:39;;;;;;;0.30;0.30;;;18.40;92.60;;;;;;5007605;28;20492;-73
2022/09/03 11:21:10;;;;;;;0.63;0.63;;;18.40;92.90;;;;;;4991944;28;20448;-73
2022/09/03 11:23:41;;;;;;;1.75;1.27;;;18.50;93.10;;;;;;4987992;28;20049;-73
2022/09/03 11:26:11;;;;;;;1.05;0.80;;;18.60;93.20;;;;;;4990930;28;20037;-74
2022/09/03 11:29:05;;;;;;;1.75;1.20;;;18.80;93.20;;;;;;4992292;28;20030;-73
2022/09/03 11:32:00;;;;;;;5.82;1.55;;;18.60;92.00;;;;;;4979808;28;20089;-73
2022/09/03 11:34:28;;;;;;;0.65;0.65;;;18.50;92.60;;;;;;5007371;28;20065;-73
2022/09/03 11:37:27;;;;;;;0.70;0.70;;;18.50;92.00;;;;;;5007473;28;20022;-75
2022/09/03 11:40:20;;;;;;;0.75;0.75;;;18.50;92.20;;;;;;5007380;28;20061;-74
2022/09/03 11:42:46;;;;;;;0.43;0.43;;;18.50;92.50;;;;;;4994547;28;20375;-73
2022/09/03 11:45:28;;;;;;;0.30;0.30;;;18.60;91.80;;;;;;4998280;28;20037;-74
2022/09/03 11:47:55;;;;;;;0.98;0.70;;;18.70;92.20;;;;;;5007000;28;20296;-73
2022/09/03 11:50:26;;;;;;;1.13;1.13;;;18.70;92.10;;;;;;4989552;28;20030;-75
2022/09/03 11:53:05;;;;;;;0.50;0.50;;;18.70;91.70;;;;;;4986150;28;20041;-74
2022/09/03 11:55:45;;;;;;;0.50;0.50;;;18.60;92.00;;;;;;4987457;28;20492;-72
2022/09/03 11:58:19;;;;;;;0.85;0.85;;;18.50;92.60;;;;;;5001166;28;20083;-73
2022/09/03 12:00:45;;;;;;;0.60;0.60;;;18.50;92.20;;;;;;5004602;28;20018;-74
2022/09/03 12:03:15;;;;;;;0.57;0.57;;;18.40;92.00;;;;;;5007019;28;20037;-73
2022/09/03 12:06:05;;;;;;;0.60;0.60;;;18.50;91.90;;;;;;5000993;28;20038;-73
2022/09/03 12:08:56;;;;;;;0.50;0.50;;;18.60;92.00;;;;;;4986982;28;20037;-73
2022/09/03 12:11:41;;;;;;;0.80;0.55;;;18.70;91.90;;;;;;4987160;28;20038;-72
2022/09/03 12:14:34;;;;;;;0.77;0.77;;;18.60;91.90;;;;;;4985657;28;20038;-76
2022/09/03 12:17:31;;;;;;;0.45;0.45;;;18.60;92.70;;;;;;4987194;28;20023;-72
2022/09/03 12:19:57;;;;;;;0.40;0.40;;;18.70;93.10;;;;;;4985422;28;20152;-73
2022/09/03 12:22:33;;;;;;;0.68;0.68;;;18.70;93.30;;;;;;5004388;28;20552;-73
2022/09/03 12:25:13;;;;;;;0.52;0.52;;;18.70;92.90;;;;;;5006582;28;20037;-74
2022/09/03 12:27:44;;;;;;;1.55;1.38;;;18.80;92.70;;;;;;4997026;28;20045;-75
2022/09/03 12:30:20;;;;;;;0.30;0.30;;;18.80;93.10;;;;;;4985429;28;20027;-74
2022/09/03 12:32:46;;;;;;;0.40;0.40;;;18.90;93.30;;;;;;4985388;28;20058;-73
2022/09/03 12:35:16;;;;;;;0.47;0.47;;;19.10;93.00;;;;;;4985577;28;20037;-74
2022/09/03 12:37:44;;;;;;;0.52;0.52;;;18.90;92.90;;;;;;5003230;28;20152;-74
2022/09/03 12:40:22;;;;;;;0.55;0.55;;;18.90;92.70;;;;;;5005577;28;20038;-74
2022/09/03 12:42:48;;;;;;;0.63;0.63;;;18.80;93.00;;;;;;4999036;28;20289;-74
2022/09/03 12:45:19;;;;;;;1.00;0.98;;;18.80;93.50;;;;;;4986779;28;20362;-73
2022/09/03 12:47:44;;;;;;;0.50;0.50;;;18.60;93.80;;;;;;4985394;28;20030;-73
2022/09/03 12:50:16;;;;;;;0.77;0.77;;;18.50;93.80;;;;;;4986898;28;20474;-73
2022/09/03 12:52:58;;;;;;;0.40;0.40;;;18.50;93.80;;;;;;5000886;28;20030;-74
2022/09/03 12:55:23;;;;;;;0.93;0.90;;;18.40;94.10;;;;;;5006213;28;20038;-73
2022/09/03 12:57:54;;;;;;;0.93;0.90;;;18.40;93.90;;;;;;5002364;28;20041;-73
2022/09/03 13:00:21;;;;;;;0.63;0.63;;;18.40;93.60;;;;;;4988055;28;20034;-73
2022/09/03 13:02:58;;;;;;;0.60;0.60;;;18.40;93.60;;;;;;4986574;28;20027;-73
2022/09/03 13:05:41;;;;;;;;;;;18.30;93.50;;;;;;4988386;28;20131;-73
2022/09/03 13:08:13;;;;;;;0.70;0.70;;;18.30;93.80;;;;;;4986363;28;20407;-72
2022/09/03 13:10:41;;;;;;;0.32;0.32;;;18.30;93.60;;;;;;4985787;28;20394;-73
2022/09/03 13:13:24;;;;;;;0.40;0.40;;;18.30;93.60;;;;;;4994839;28;20041;-74
2022/09/03 13:16:08;;;;;;;0.50;0.50;;;18.20;93.70;;;;;;5008488;28;20034;-73
2022/09/03 13:19:03;;;;;;;0.30;0.30;;;18.20;94.00;;;;;;5008123;28;20087;-72
2022/09/03 13:21:39;;;;;;;0.30;0.30;;;18.20;94.70;;;;;;5006331;28;20066;-72
2022/09/03 13:24:11;;;;;;;0.52;0.52;;;18.10;94.50;;;;;;4988495;28;20034;-72